createdAt,value
2022-09-04T00:02:12.543Z,5.03
2022-09-04T00:05:04.844Z,6.10
2022-09-04T00:08:03.413Z,6.35
2022-09-04T00:10:38.964Z,6.07
2022-09-04T00:13:12.607Z,5.65
2022-09-04T00:15:47.516Z,5.78
2022-09-04T00:18:29.180Z,5.80
2022-09-04T00:21:26.619Z,4.78
2022-09-04T00:24:02.220Z,4.97
2022-09-04T00:26:44.172Z,4.20
2022-09-04T00:29:48.583Z,7.70
2022-09-04T00:32:46.475Z,5.97
2022-09-04T00:35:31.825Z,7.78
2022-09-04T00:38:08.382Z,5.28
2022-09-04T00:40:42.604Z,9.43
2022-09-04T00:43:25.423Z,6.53
2022-09-04T00:46:20.494Z,7.57
2022-09-04T00:49:03.017Z,7.78
2022-09-04T00:51:40.525Z,5.43
2022-09-04T00:54:31.019Z,6.15
2022-09-04T00:57:25.515Z,5.72
2022-09-04T00:59:55.778Z,9.45
2022-09-04T01:03:09.922Z,4.63
2022-09-04T01:05:49.122Z,4.63
2022-09-04T01:08:42.366Z,4.80
2022-09-04T01:11:32.157Z,5.63
2022-09-04T01:14:13.408Z,4.25
2022-09-04T01:16:55.389Z,5.07
2022-09-04T01:19:30.329Z,3.42
2022-09-04T01:22:12.173Z,6.05
2022-09-04T01:24:46.587Z,6.47
2022-09-04T01:27:38.187Z,4.78
2022-09-04T01:30:13.127Z,6.22
2022-09-04T01:32:49.173Z,5.05
2022-09-04T01:35:16.353Z,5.40
2022-09-04T01:38:02.214Z,5.15
2022-09-04T01:40:38.473Z,6.78
2022-09-04T01:43:21.306Z,6.68
2022-09-04T01:45:53.057Z,5.13
2022-09-04T01:48:32.046Z,7.25
2022-09-04T01:51:08.397Z,5.88
2022-09-04T01:53:41.784Z,5.43
2022-09-04T01:56:17.394Z,6.32
2022-09-04T01:58:59.556Z,8.45
2022-09-04T02:01:45.453Z,9.05
2022-09-04T02:04:48.156Z,5.57
2022-09-04T02:07:19.907Z,4.97
2022-09-04T02:09:56.190Z,5.25
2022-09-04T02:12:38.013Z,8.67
2022-09-04T02:15:33.622Z,13.63
2022-09-04T02:18:33.073Z,13.77
2022-09-04T02:21:07.751Z,11.52
2022-09-04T02:23:52.196Z,11.02
2022-09-04T02:26:22.812Z,10.68
2022-09-04T02:29:00.144Z,8.80
2022-09-04T02:31:48.529Z,8.50
2022-09-04T02:34:31.411Z,6.38
2022-09-04T02:37:22.492Z,4.38
2022-09-04T02:40:39.998Z,4.35
2022-09-04T02:43:28.959Z,8.95
2022-09-04T02:46:14.938Z,15.52
2022-09-04T02:49:10.018Z,12.20
2022-09-04T02:52:15.177Z,8.25
2022-09-04T02:55:00.073Z,7.15
2022-09-04T02:57:44.777Z,5.50
2022-09-04T03:00:21.215Z,9.27
2022-09-04T03:03:04.312Z,11.85
2022-09-04T03:05:44.953Z,11.07
2022-09-04T03:08:14.826Z,9.60
2022-09-04T03:11:01.060Z,7.68
2022-09-04T03:13:46.770Z,7.72
2022-09-04T03:16:26.480Z,8.68
2022-09-04T03:19:16.415Z,10.27
2022-09-04T03:21:51.334Z,9.50
2022-09-04T03:24:38.880Z,8.63
2022-09-04T03:27:10.627Z,8.88
2022-09-04T03:30:09.106Z,7.45
2022-09-04T03:33:03.840Z,8.82
2022-09-04T03:35:39.684Z,8.50
2022-09-04T03:38:38.752Z,10.83
2022-09-04T03:41:29.107Z,9.55
2022-09-04T03:44:27.960Z,12.98
2022-09-04T03:46:57.974Z,7.93
2022-09-04T03:49:31.184Z,5.60
2022-09-04T03:52:48.435Z,7.57
2022-09-04T03:55:27.955Z,7.18
2022-09-04T03:58:01.412Z,6.55
2022-09-04T04:00:59.569Z,8.43
2022-09-04T04:04:00.174Z,6.53
2022-09-04T04:06:34.664Z,6.93
2022-09-04T04:09:04.581Z,7.32
2022-09-04T04:11:46.201Z,5.57
2022-09-04T04:14:31.312Z,5.15
2022-09-04T04:17:07.460Z,4.50
2022-09-04T04:19:49.508Z,7.03
2022-09-04T04:22:19.632Z,4.75
2022-09-04T04:24:58.793Z,4.80
2022-09-04T04:27:36.155Z,7.10
2022-09-04T04:30:03.525Z,6.07
2022-09-04T04:32:34.094Z,8.43
2022-09-04T04:35:29.073Z,10.02
2022-09-04T04:38:19.407Z,10.02
2022-09-04T04:42:00.949Z,7.07
2022-09-04T04:45:43.513Z,6.47
2022-09-04T04:48:40.948Z,9.05
2022-09-04T04:51:11.243Z,5.97
2022-09-04T04:54:13.259Z,8.48
2022-09-04T04:57:18.125Z,9.90
2022-09-04T05:00:27.302Z,6.15
2022-09-04T05:03:19.330Z,7.60
2022-09-04T05:06:09.697Z,7.00
2022-09-04T05:09:09.657Z,6.25
2022-09-04T05:12:09.408Z,5.28
2022-09-04T05:14:42.839Z,4.35
2022-09-04T05:17:54.227Z,4.65
2022-09-04T05:20:52.984Z,7.13
2022-09-04T05:23:33.519Z,4.80
2022-09-04T05:26:07.246Z,5.03
2022-09-04T05:28:43.351Z,5.65
2022-09-04T05:31:17.279Z,10.57
2022-09-04T05:34:02.864Z,6.13
2022-09-04T05:36:57.560Z,6.07
2022-09-04T05:39:43.208Z,4.53
2022-09-04T05:42:32.168Z,5.13
2022-09-04T05:45:16.920Z,5.20
2022-09-04T05:48:15.461Z,6.28
2022-09-04T05:50:48.535Z,6.78
2022-09-04T05:53:31.234Z,8.05
2022-09-04T05:56:39.073Z,7.45
2022-09-04T05:59:23.345Z,4.78
2022-09-04T06:01:59.411Z,6.15
2022-09-04T06:04:45.095Z,6.68
2022-09-04T06:07:20.435Z,7.78
2022-09-04T06:10:03.408Z,7.95
2022-09-04T06:12:46.090Z,7.93
2022-09-04T06:15:40.687Z,8.32
2022-09-04T06:18:28.157Z,6.78
2022-09-04T06:21:14.378Z,7.15
2022-09-04T06:24:04.168Z,5.68
2022-09-04T06:26:44.483Z,7.10
2022-09-04T06:29:37.697Z,6.68
2022-09-04T06:32:33.560Z,16.85
2022-09-04T06:35:23.723Z,17.88
2022-09-04T06:38:13.487Z,19.45
2022-09-04T06:40:43.504Z,22.27
2022-09-04T06:43:31.828Z,18.15
2022-09-04T06:46:42.932Z,83.03
2022-09-04T06:49:36.885Z,95.63
2022-09-04T06:52:11.189Z,154.02
2022-09-04T06:55:04.478Z,66.28
2022-09-04T06:57:57.923Z,26.27
2022-09-04T07:00:28.378Z,8.50
2022-09-04T07:03:01.152Z,12.25
2022-09-04T07:05:57.512Z,5.53
2022-09-04T07:08:58.414Z,8.15
2022-09-04T07:12:01.977Z,5.88
2022-09-04T07:14:54.473Z,5.82
2022-09-04T07:17:42.940Z,5.60
2022-09-04T07:20:25.931Z,7.47
2022-09-04T07:23:32.659Z,6.60
2022-09-04T07:26:26.578Z,7.85
2022-09-04T07:29:26.085Z,7.70
2022-09-04T07:32:15.522Z,7.85
2022-09-04T07:35:08.069Z,8.45
2022-09-04T07:37:52.213Z,6.10
2022-09-04T07:40:41.082Z,4.68
2022-09-04T07:43:13.441Z,10.95
2022-09-04T07:45:47.470Z,6.18
2022-09-04T07:48:36.236Z,4.47
2022-09-04T07:51:10.576Z,3.85
2022-09-04T07:53:46.797Z,6.25
2022-09-04T07:59:18.527Z,5.70
2022-09-04T08:01:52.377Z,8.35
2022-09-04T08:04:33.504Z,3.90
2022-09-04T08:07:10.754Z,5.57
2022-09-04T08:10:12.218Z,5.15
2022-09-04T08:13:14.200Z,6.20
2022-09-04T08:15:46.504Z,5.63
2022-09-04T08:18:16.983Z,4.57
2022-09-04T08:21:17.711Z,7.05
2022-09-04T08:24:12.839Z,5.60
2022-09-04T08:27:15.650Z,3.40
2022-09-04T08:30:05.464Z,4.25
2022-09-04T08:32:38.036Z,11.20
2022-09-04T08:35:29.612Z,3.45
2022-09-04T08:38:28.839Z,3.95
2022-09-04T08:41:06.979Z,4.60
2022-09-04T08:43:52.463Z,3.63
2022-09-04T08:46:44.721Z,4.53
2022-09-04T08:50:01.963Z,4.38
2022-09-04T08:53:05.818Z,2.88
2022-09-04T08:55:33.174Z,4.95
2022-09-04T08:58:47.049Z,2.92
2022-09-04T09:01:30.486Z,6.82
2022-09-04T09:04:39.564Z,4.97
2022-09-04T09:07:27.699Z,5.53
2022-09-04T09:10:22.236Z,4.68
2022-09-04T09:13:25.508Z,4.40
2022-09-04T09:16:09.248Z,3.22
2022-09-04T09:19:03.957Z,7.07
2022-09-04T09:21:53.127Z,4.32
2022-09-04T09:24:53.783Z,3.33
2022-09-04T09:27:56.431Z,8.05
2022-09-04T09:30:24.744Z,5.75
2022-09-04T09:33:24.127Z,4.28
2022-09-04T09:36:04.761Z,4.95
2022-09-04T09:38:48.699Z,3.83
2022-09-04T09:41:31.296Z,2.72
2022-09-04T09:43:58.769Z,3.53
2022-09-04T09:46:32.103Z,4.35
2022-09-04T09:49:21.231Z,3.40
2022-09-04T09:52:15.810Z,2.28
2022-09-04T09:54:55.565Z,3.92
2022-09-04T09:57:46.518Z,4.80
2022-09-04T10:00:23.717Z,6.38
2022-09-04T10:03:29.064Z,3.70
2022-09-04T10:06:06.745Z,3.30
2022-09-04T10:08:42.790Z,3.22
2022-09-04T10:11:36.874Z,3.75
2022-09-04T10:14:09.639Z,5.30
2022-09-04T10:16:39.771Z,3.30
2022-09-04T10:19:31.783Z,3.10
2022-09-04T10:22:32.726Z,8.05
2022-09-04T10:25:37.506Z,4.25
2022-09-04T10:28:29.681Z,4.15
2022-09-04T10:31:18.558Z,2.83
2022-09-04T10:34:01.098Z,3.15
2022-09-04T10:36:37.257Z,2.95
2022-09-04T10:42:10.876Z,2.35
2022-09-04T10:44:44.872Z,1.88
2022-09-04T10:47:17.992Z,3.97
2022-09-04T10:49:48.666Z,2.70
2022-09-04T10:52:24.739Z,3.70
2022-09-04T10:54:58.580Z,2.05
2022-09-04T10:58:01.883Z,1.45
2022-09-04T11:00:40.409Z,1.88
2022-09-04T11:03:28.957Z,2.70
2022-09-04T11:06:18.167Z,2.22
2022-09-04T11:09:14.681Z,3.00
2022-09-04T11:12:34.075Z,2.92
2022-09-04T11:15:26.623Z,3.20
2022-09-04T11:17:53.979Z,3.22
2022-09-04T11:20:57.418Z,6.07
2022-09-04T11:23:49.437Z,19.25
2022-09-04T11:26:26.459Z,4.80
2022-09-04T11:29:11.061Z,1.95
2022-09-04T11:31:53.744Z,3.17
2022-09-04T11:34:35.709Z,4.47
2022-09-04T11:37:23.553Z,2.58
2022-09-04T11:39:53.746Z,2.47
2022-09-04T11:42:42.465Z,2.33
2022-09-04T11:45:36.759Z,2.42
2022-09-04T11:48:18.533Z,3.72
2022-09-04T11:51:08.527Z,3.60
2022-09-04T11:53:35.772Z,1.48
2022-09-04T11:56:26.750Z,2.97
2022-09-04T11:59:18.035Z,4.88
2022-09-04T12:02:11.842Z,4.22
2022-09-04T12:05:07.999Z,4.60
2022-09-04T12:07:59.770Z,4.93
2022-09-04T12:10:47.944Z,3.55
2022-09-04T12:13:15.777Z,2.97
2022-09-04T12:15:54.455Z,3.63
2022-09-04T12:18:41.766Z,4.22
2022-09-04T12:21:54.425Z,4.20
2022-09-04T12:24:49.905Z,4.32
2022-09-04T12:27:37.594Z,2.10
2022-09-04T12:30:11.456Z,2.78
2022-09-04T12:32:38.801Z,3.45
2022-09-04T12:35:32.006Z,3.28
2022-09-04T12:38:08.077Z,1.77
2022-09-04T12:40:47.554Z,2.30
2022-09-04T12:43:45.283Z,2.88
2022-09-04T12:46:18.454Z,2.75
2022-09-04T12:48:57.401Z,5.03
2022-09-04T12:51:38.110Z,2.53
2022-09-04T12:54:27.487Z,2.78
2022-09-04T12:57:06.755Z,3.65
2022-09-04T12:59:33.940Z,2.80
2022-09-04T13:02:34.540Z,4.57
2022-09-04T13:05:10.692Z,2.08
2022-09-04T13:08:18.961Z,6.03
2022-09-04T13:11:19.904Z,4.35
2022-09-04T13:13:59.549Z,3.25
2022-09-04T13:16:42.212Z,3.28
2022-09-04T13:19:22.844Z,5.38
2022-09-04T13:22:13.828Z,3.40
2022-09-04T13:24:53.899Z,1.80
2022-09-04T13:27:49.293Z,1.52
2022-09-04T13:30:24.610Z,2.60
2022-09-04T13:33:13.899Z,2.97
2022-09-04T13:36:16.504Z,3.67
2022-09-04T13:39:06.803Z,6.20
2022-09-04T13:41:34.209Z,4.10
2022-09-04T13:44:34.296Z,3.80
2022-09-04T13:47:12.100Z,4.35
2022-09-04T13:49:56.666Z,3.10
2022-09-04T13:52:27.915Z,2.58
2022-09-04T13:55:21.537Z,3.20
2022-09-04T13:57:57.563Z,3.08
2022-09-04T14:00:27.961Z,2.42
2022-09-04T14:03:10.824Z,3.33
2022-09-04T14:05:38.995Z,5.13
2022-09-04T14:08:12.552Z,3.47
2022-09-04T14:10:58.584Z,2.25
2022-09-04T14:13:38.000Z,3.40
2022-09-04T14:16:09.096Z,3.22
2022-09-04T14:18:46.035Z,3.92
2022-09-04T14:24:15.859Z,2.25
2022-09-04T14:26:48.712Z,5.03
2022-09-04T14:29:36.337Z,1.95
2022-09-04T14:32:45.289Z,2.70
2022-09-04T14:35:27.914Z,2.22
2022-09-04T14:38:24.205Z,3.00
2022-09-04T14:41:07.222Z,2.42
2022-09-04T14:44:15.951Z,2.47
2022-09-04T14:47:09.688Z,2.63
2022-09-04T14:49:47.070Z,5.28
2022-09-04T14:52:28.082Z,3.28
2022-09-04T14:54:58.150Z,4.82
2022-09-04T14:57:40.680Z,3.17
2022-09-04T15:00:07.874Z,3.85
2022-09-04T15:03:08.412Z,2.45
2022-09-04T15:05:56.839Z,7.32
2022-09-04T15:08:29.453Z,5.82
2022-09-04T15:11:00.814Z,3.75
2022-09-04T15:13:28.148Z,5.15
2022-09-04T15:16:09.342Z,3.30
2022-09-04T15:19:05.131Z,3.33
2022-09-04T15:21:56.183Z,5.70
2022-09-04T15:24:27.028Z,3.47
2022-09-04T15:26:58.482Z,3.40
2022-09-04T15:29:38.528Z,2.83
2022-09-04T15:32:09.389Z,2.35
2022-09-04T15:34:41.931Z,3.97
2022-09-04T15:37:21.030Z,2.45
2022-09-04T15:39:58.097Z,3.05
2022-09-04T15:43:00.871Z,3.25
2022-09-04T15:45:52.447Z,2.85
2022-09-04T15:48:54.033Z,2.13
2022-09-04T15:51:46.205Z,1.88
2022-09-04T15:54:41.850Z,3.30
2022-09-04T15:57:25.083Z,1.50
2022-09-04T16:00:12.707Z,1.73
2022-09-04T16:03:00.354Z,2.47
2022-09-04T16:05:49.172Z,3.20
2022-09-04T16:08:46.428Z,3.80
2022-09-04T16:11:28.969Z,3.45
2022-09-04T16:14:21.495Z,5.30
2022-09-04T16:17:01.211Z,3.25
2022-09-04T16:19:54.064Z,3.25
2022-09-04T16:22:30.980Z,1.65
2022-09-04T16:25:11.880Z,2.97
2022-09-04T16:27:51.205Z,2.15
2022-09-04T16:30:36.947Z,2.25
2022-09-04T16:33:12.870Z,1.80
2022-09-04T16:35:49.513Z,3.03
2022-09-04T16:38:30.929Z,2.17
2022-09-04T16:41:11.103Z,3.40
2022-09-04T16:43:39.519Z,2.00
2022-09-04T16:46:27.589Z,3.45
2022-09-04T16:49:07.207Z,3.85
2022-09-04T16:51:50.419Z,5.57
2022-09-04T16:54:33.232Z,7.70
2022-09-04T16:57:13.164Z,6.93
2022-09-04T16:59:58.782Z,3.53
2022-09-04T17:03:02.231Z,3.85
2022-09-04T17:05:40.045Z,3.50
2022-09-04T17:08:29.246Z,3.92
2022-09-04T17:11:02.890Z,2.70
2022-09-04T17:13:44.052Z,3.75
2022-09-04T17:16:14.321Z,3.00
2022-09-04T17:18:48.094Z,3.08
2022-09-04T17:27:32.365Z,4.57
2022-09-04T17:28:57.865Z,4.60
2022-09-04T17:29:11.931Z,2.22
2022-09-04T17:31:34.032Z,5.32
2022-09-04T17:40:31.969Z,4.95
2022-09-04T17:40:40.414Z,3.00
2022-09-04T17:40:51.618Z,6.43
2022-09-04T17:43:21.759Z,5.38
2022-09-04T17:46:08.877Z,5.20
2022-09-04T17:48:43.186Z,5.23
2022-09-04T17:51:18.327Z,3.45
2022-09-04T17:53:55.506Z,4.82
2022-09-04T17:56:30.240Z,3.30
2022-09-04T17:59:07.640Z,3.92
2022-09-04T18:01:53.340Z,4.30
2022-09-04T18:04:35.602Z,5.72
2022-09-04T18:08:08.598Z,5.78
2022-09-04T18:10:58.407Z,4.28
2022-09-04T18:13:38.108Z,3.63
2022-09-04T18:16:26.993Z,4.75
2022-09-04T18:19:17.322Z,4.60
2022-09-04T18:21:53.858Z,3.63
2022-09-04T18:24:40.065Z,4.65
2022-09-04T18:27:20.947Z,3.20
2022-09-04T18:33:05.380Z,2.78
2022-09-04T18:37:26.560Z,3.35
2022-09-04T18:37:26.562Z,2.17
2022-09-04T18:39:37.469Z,2.95
2022-09-04T18:50:30.120Z,2.05
2022-09-04T18:50:36.245Z,2.47
2022-09-04T18:53:55.878Z,3.03
2022-09-04T18:56:31.821Z,4.93
2022-09-04T18:59:07.128Z,2.97
2022-09-04T19:01:42.892Z,2.88
2022-09-04T19:04:19.534Z,5.00
2022-09-04T19:06:53.079Z,3.75
2022-09-04T19:09:55.818Z,4.80
2022-09-04T19:12:35.847Z,4.45
2022-09-04T19:15:21.481Z,3.90
2022-09-04T19:18:03.564Z,5.93
2022-09-04T19:20:38.574Z,3.95
2022-09-04T19:23:15.495Z,6.93
2022-09-04T19:25:53.341Z,9.25
2022-09-04T19:28:38.470Z,12.00
2022-09-04T19:31:16.889Z,7.00
2022-09-04T19:34:18.291Z,5.15
2022-09-04T19:37:19.016Z,12.27
2022-09-04T19:46:03.889Z,9.02
2022-09-04T19:46:17.279Z,45.03
2022-09-04T19:46:26.161Z,24.05
2022-09-04T19:51:28.759Z,33.75
2022-09-04T19:53:24.045Z,40.78
2022-09-04T19:55:25.079Z,16.48
2022-09-04T19:58:12.084Z,12.68
2022-09-04T20:00:58.010Z,13.63
2022-09-04T20:03:31.230Z,10.65
2022-09-04T20:06:21.778Z,8.48
2022-09-04T20:09:13.400Z,5.65
2022-09-04T20:11:52.604Z,8.20
2022-09-04T20:14:42.609Z,6.63
2022-09-04T20:17:16.130Z,5.57
2022-09-04T20:19:53.136Z,3.35
2022-09-04T20:22:45.458Z,3.95
2022-09-04T20:25:24.588Z,4.93
2022-09-04T20:28:00.624Z,3.25
2022-09-04T20:30:31.111Z,3.00
2022-09-04T20:33:11.747Z,4.28
2022-09-04T20:35:50.709Z,4.65
2022-09-04T20:38:34.271Z,4.20
2022-09-04T20:41:12.001Z,4.60
2022-09-04T20:43:51.246Z,5.90
2022-09-04T20:52:43.709Z,4.35
2022-09-04T20:52:59.686Z,7.43
2022-09-04T20:53:09.600Z,5.28
2022-09-04T20:55:49.925Z,5.22
2022-09-04T21:03:08.849Z,6.68
2022-09-04T21:03:12.921Z,5.25
2022-09-04T21:04:23.819Z,6.70
2022-09-04T21:07:31.293Z,7.47
2022-09-04T21:10:50.167Z,9.05
2022-09-04T21:13:30.679Z,6.72
2022-09-04T21:16:16.639Z,5.53
2022-09-04T21:19:27.306Z,6.72
2022-09-04T21:22:05.255Z,4.85
2022-09-04T21:25:18.520Z,5.45
2022-09-04T21:28:13.424Z,5.78
2022-09-04T21:31:05.604Z,6.00
2022-09-04T21:33:45.964Z,4.20
2022-09-04T21:36:33.412Z,5.82
2022-09-04T21:39:22.582Z,5.07
2022-09-04T21:41:55.827Z,4.43
2022-09-04T21:45:08.321Z,5.30
2022-09-04T21:48:03.359Z,5.85
2022-09-04T21:50:49.689Z,5.45
2022-09-04T21:53:32.053Z,6.95
2022-09-04T21:59:22.641Z,5.00
2022-09-04T22:02:41.325Z,5.18
2022-09-04T22:02:57.625Z,5.03
2022-09-04T22:05:53.480Z,5.47
2022-09-04T22:13:34.623Z,6.57
2022-09-04T22:13:42.735Z,5.18
2022-09-04T22:14:34.610Z,3.97
2022-09-04T22:17:07.122Z,5.53
2022-09-04T22:19:54.014Z,4.97
2022-09-04T22:22:46.347Z,6.68
2022-09-04T22:25:13.866Z,5.35
2022-09-04T22:28:08.336Z,9.48
2022-09-04T22:30:42.632Z,4.75
2022-09-04T22:33:39.789Z,5.22
2022-09-04T22:36:24.126Z,7.47
2022-09-04T22:39:11.375Z,5.03
2022-09-04T22:44:44.790Z,5.75
2022-09-04T22:47:39.144Z,6.30
2022-09-04T22:50:09.488Z,5.68
2022-09-04T22:53:14.163Z,6.20
2022-09-04T22:56:02.176Z,8.20
2022-09-04T22:59:23.906Z,4.22
2022-09-04T23:02:14.073Z,6.32
2022-09-04T23:04:59.678Z,6.07
2022-09-04T23:13:46.304Z,5.22
2022-09-04T23:13:58.086Z,5.65
2022-09-04T23:14:07.651Z,5.22
2022-09-04T23:17:08.844Z,5.70
2022-09-04T23:26:37.835Z,4.93
2022-09-04T23:26:58.780Z,4.53
2022-09-04T23:26:59.047Z,4.15
2022-09-04T23:29:34.694Z,6.70
2022-09-04T23:32:13.364Z,5.75
2022-09-04T23:35:15.020Z,5.85
2022-09-04T23:38:13.136Z,4.25
2022-09-04T23:41:20.641Z,6.53
2022-09-04T23:44:15.424Z,4.88
2022-09-04T23:47:48.809Z,6.10
2022-09-04T23:50:59.483Z,4.32
2022-09-04T23:54:24.731Z,4.25
2022-09-04T23:57:26.520Z,4.55
